sensor_id;sensor_type;location;lat;lon;timestamp;P1;durP1;ratioP1;P2;durP2;ratioP2
70757;SDS011;59316;52.964;7.102;2023-05-06T00:04:58;13.50;;;7.38;;
70757;SDS011;59316;52.964;7.102;2023-05-06T00:10:19;11.55;;;7.38;;
70757;SDS011;59316;52.964;7.102;2023-05-06T00:15:41;9.88;;;6.53;;
70757;SDS011;59316;52.964;7.102;2023-05-06T00:21:02;16.20;;;9.88;;
70757;SDS011;59316;52.964;7.102;2023-05-06T00:26:23;17.48;;;9.13;;
70757;SDS011;59316;52.964;7.102;2023-05-06T00:31:46;15.68;;;9.07;;
70757;SDS011;59316;52.964;7.102;2023-05-06T00:37:08;14.07;;;8.98;;
70757;SDS011;59316;52.964;7.102;2023-05-06T00:42:29;19.38;;;10.15;;
70757;SDS011;59316;52.964;7.102;2023-05-06T00:47:51;16.58;;;10.13;;
70757;SDS011;59316;52.964;7.102;2023-05-06T00:53:13;18.20;;;9.75;;
70757;SDS011;59316;52.964;7.102;2023-05-06T00:58:35;14.65;;;9.40;;
70757;SDS011;59316;52.964;7.102;2023-05-06T01:03:58;12.65;;;8.32;;
70757;SDS011;59316;52.964;7.102;2023-05-06T01:09:30;12.10;;;8.05;;
70757;SDS011;59316;52.964;7.102;2023-05-06T01:15:06;15.65;;;9.32;;
70757;SDS011;59316;52.964;7.102;2023-05-06T01:20:34;17.58;;;10.68;;
70757;SDS011;59316;52.964;7.102;2023-05-06T01:25:57;14.87;;;9.37;;
70757;SDS011;59316;52.964;7.102;2023-05-06T01:37:13;24.90;;;13.20;;
70757;SDS011;59316;52.964;7.102;2023-05-06T01:42:47;28.30;;;14.32;;
70757;SDS011;59316;52.964;7.102;2023-05-06T01:48:09;21.13;;;11.38;;
70757;SDS011;59316;52.964;7.102;2023-05-06T01:53:31;67.53;;;11.93;;
70757;SDS011;59316;52.964;7.102;2023-05-06T01:58:53;171.85;;;13.80;;
70757;SDS011;59316;52.964;7.102;2023-05-06T02:04:15;35.25;;;9.10;;
70757;SDS011;59316;52.964;7.102;2023-05-06T02:09:37;22.20;;;7.80;;
70757;SDS011;59316;52.964;7.102;2023-05-06T02:14:58;46.08;;;8.60;;
70757;SDS011;59316;52.964;7.102;2023-05-06T02:20:20;22.25;;;7.68;;
70757;SDS011;59316;52.964;7.102;2023-05-06T02:25:41;8.70;;;6.38;;
70757;SDS011;59316;52.964;7.102;2023-05-06T02:31:03;47.33;;;7.63;;
70757;SDS011;59316;52.964;7.102;2023-05-06T02:36:24;7.57;;;5.97;;
70757;SDS011;59316;52.964;7.102;2023-05-06T02:41:46;19.10;;;11.05;;
70757;SDS011;59316;52.964;7.102;2023-05-06T02:47:08;187.60;;;14.70;;
70757;SDS011;59316;52.964;7.102;2023-05-06T02:52:30;214.73;;;16.95;;
70757;SDS011;59316;52.964;7.102;2023-05-06T02:57:51;168.85;;;17.60;;
70757;SDS011;59316;52.964;7.102;2023-05-06T03:03:13;37.78;;;12.70;;
70757;SDS011;59316;52.964;7.102;2023-05-06T03:08:34;17.05;;;10.93;;
70757;SDS011;59316;52.964;7.102;2023-05-06T03:13:58;20.92;;;11.60;;
70757;SDS011;59316;52.964;7.102;2023-05-06T03:19:19;22.30;;;12.05;;
70757;SDS011;59316;52.964;7.102;2023-05-06T03:24:41;13.05;;;10.20;;
70757;SDS011;59316;52.964;7.102;2023-05-06T03:30:03;50.78;;;11.98;;
70757;SDS011;59316;52.964;7.102;2023-05-06T03:35:25;49.45;;;12.77;;
70757;SDS011;59316;52.964;7.102;2023-05-06T03:40:51;37.83;;;12.98;;
70757;SDS011;59316;52.964;7.102;2023-05-06T03:46:14;70.00;;;14.20;;
70757;SDS011;59316;52.964;7.102;2023-05-06T03:51:35;36.47;;;15.15;;
70757;SDS011;59316;52.964;7.102;2023-05-06T03:56:58;23.13;;;13.70;;
70757;SDS011;59316;52.964;7.102;2023-05-06T04:02:19;53.00;;;15.98;;
70757;SDS011;59316;52.964;7.102;2023-05-06T04:07:41;19.02;;;13.48;;
70757;SDS011;59316;52.964;7.102;2023-05-06T04:13:02;118.97;;;16.52;;
70757;SDS011;59316;52.964;7.102;2023-05-06T04:18:31;74.47;;;16.35;;
70757;SDS011;59316;52.964;7.102;2023-05-06T04:23:57;72.07;;;16.70;;
70757;SDS011;59316;52.964;7.102;2023-05-06T04:29:26;47.85;;;16.60;;
70757;SDS011;59316;52.964;7.102;2023-05-06T04:34:52;31.33;;;15.40;;
70757;SDS011;59316;52.964;7.102;2023-05-06T04:40:14;44.25;;;16.98;;
70757;SDS011;59316;52.964;7.102;2023-05-06T04:45:40;48.83;;;16.98;;
70757;SDS011;59316;52.964;7.102;2023-05-06T04:51:03;27.40;;;15.68;;
70757;SDS011;59316;52.964;7.102;2023-05-06T04:56:26;27.33;;;16.60;;
70757;SDS011;59316;52.964;7.102;2023-05-06T05:01:47;22.05;;;13.60;;
70757;SDS011;59316;52.964;7.102;2023-05-06T05:07:09;16.38;;;11.23;;
70757;SDS011;59316;52.964;7.102;2023-05-06T05:12:30;19.10;;;12.52;;
70757;SDS011;59316;52.964;7.102;2023-05-06T05:17:54;22.95;;;15.20;;
70757;SDS011;59316;52.964;7.102;2023-05-06T05:23:16;33.85;;;16.88;;
70757;SDS011;59316;52.964;7.102;2023-05-06T05:28:38;23.42;;;16.52;;
70757;SDS011;59316;52.964;7.102;2023-05-06T05:34:00;36.80;;;15.55;;
70757;SDS011;59316;52.964;7.102;2023-05-06T05:39:22;28.10;;;13.43;;
70757;SDS011;59316;52.964;7.102;2023-05-06T05:44:43;43.42;;;14.80;;
70757;SDS011;59316;52.964;7.102;2023-05-06T05:50:05;45.05;;;13.07;;
70757;SDS011;59316;52.964;7.102;2023-05-06T06:00:50;20.73;;;12.90;;
70757;SDS011;59316;52.964;7.102;2023-05-06T06:06:12;15.25;;;11.38;;
70757;SDS011;59316;52.964;7.102;2023-05-06T06:11:34;14.80;;;10.80;;
70757;SDS011;59316;52.964;7.102;2023-05-06T06:16:55;18.60;;;11.88;;
70757;SDS011;59316;52.964;7.102;2023-05-06T06:22:17;17.55;;;12.18;;
70757;SDS011;59316;52.964;7.102;2023-05-06T06:27:39;17.92;;;12.18;;
70757;SDS011;59316;52.964;7.102;2023-05-06T06:33:01;17.35;;;12.48;;
70757;SDS011;59316;52.964;7.102;2023-05-06T06:38:23;20.05;;;13.50;;
70757;SDS011;59316;52.964;7.102;2023-05-06T06:43:44;19.10;;;13.18;;
70757;SDS011;59316;52.964;7.102;2023-05-06T06:49:09;20.55;;;13.93;;
70757;SDS011;59316;52.964;7.102;2023-05-06T06:54:30;21.92;;;14.13;;
70757;SDS011;59316;52.964;7.102;2023-05-06T06:59:52;23.70;;;13.98;;
70757;SDS011;59316;52.964;7.102;2023-05-06T07:05:13;27.73;;;16.25;;
70757;SDS011;59316;52.964;7.102;2023-05-06T07:10:35;25.27;;;16.17;;
70757;SDS011;59316;52.964;7.102;2023-05-06T07:15:57;20.30;;;12.77;;
70757;SDS011;59316;52.964;7.102;2023-05-06T07:21:19;22.23;;;13.13;;
70757;SDS011;59316;52.964;7.102;2023-05-06T07:26:40;20.80;;;13.20;;
70757;SDS011;59316;52.964;7.102;2023-05-06T07:32:02;20.90;;;13.57;;
70757;SDS011;59316;52.964;7.102;2023-05-06T07:37:24;20.55;;;13.48;;
70757;SDS011;59316;52.964;7.102;2023-05-06T07:42:45;15.75;;;10.77;;
70757;SDS011;59316;52.964;7.102;2023-05-06T07:48:07;13.80;;;8.05;;
70757;SDS011;59316;52.964;7.102;2023-05-06T07:53:29;12.98;;;8.10;;
70757;SDS011;59316;52.964;7.102;2023-05-06T07:58:50;12.07;;;7.85;;
70757;SDS011;59316;52.964;7.102;2023-05-06T08:04:12;14.82;;;9.63;;
70757;SDS011;59316;52.964;7.102;2023-05-06T08:09:33;10.27;;;7.15;;
70757;SDS011;59316;52.964;7.102;2023-05-06T08:14:55;13.93;;;8.43;;
70757;SDS011;59316;52.964;7.102;2023-05-06T08:20:16;12.00;;;8.75;;
70757;SDS011;59316;52.964;7.102;2023-05-06T08:25:38;5.10;;;3.80;;
70757;SDS011;59316;52.964;7.102;2023-05-06T08:30:59;6.97;;;4.80;;
70757;SDS011;59316;52.964;7.102;2023-05-06T08:36:21;7.38;;;4.63;;
70757;SDS011;59316;52.964;7.102;2023-05-06T08:41:46;7.90;;;5.00;;
70757;SDS011;59316;52.964;7.102;2023-05-06T08:47:09;5.20;;;3.40;;
70757;SDS011;59316;52.964;7.102;2023-05-06T08:52:30;6.05;;;3.45;;
70757;SDS011;59316;52.964;7.102;2023-05-06T08:57:52;4.88;;;3.22;;
70757;SDS011;59316;52.964;7.102;2023-05-06T09:03:15;4.87;;;2.70;;
70757;SDS011;59316;52.964;7.102;2023-05-06T09:08:37;4.18;;;2.85;;
70757;SDS011;59316;52.964;7.102;2023-05-06T09:19:30;3.53;;;2.72;;
70757;SDS011;59316;52.964;7.102;2023-05-06T09:24:52;4.22;;;2.88;;
70757;SDS011;59316;52.964;7.102;2023-05-06T09:30:14;4.07;;;3.13;;
70757;SDS011;59316;52.964;7.102;2023-05-06T09:40:59;4.72;;;2.90;;
70757;SDS011;59316;52.964;7.102;2023-05-06T09:46:21;4.30;;;3.25;;
70757;SDS011;59316;52.964;7.102;2023-05-06T09:51:44;4.15;;;2.90;;
70757;SDS011;59316;52.964;7.102;2023-05-06T09:57:05;1.75;;;1.60;;
70757;SDS011;59316;52.964;7.102;2023-05-06T10:02:27;6.07;;;3.42;;
70757;SDS011;59316;52.964;7.102;2023-05-06T10:07:49;5.43;;;3.33;;
70757;SDS011;59316;52.964;7.102;2023-05-06T10:13:12;5.25;;;4.10;;
70757;SDS011;59316;52.964;7.102;2023-05-06T10:18:36;6.50;;;3.45;;
70757;SDS011;59316;52.964;7.102;2023-05-06T10:24:05;3.83;;;3.17;;
70757;SDS011;59316;52.964;7.102;2023-05-06T10:29:31;6.20;;;5.03;;
70757;SDS011;59316;52.964;7.102;2023-05-06T10:34:55;6.85;;;4.75;;
70757;SDS011;59316;52.964;7.102;2023-05-06T10:40:25;7.60;;;5.40;;
70757;SDS011;59316;52.964;7.102;2023-05-06T10:45:59;9.13;;;6.22;;
70757;SDS011;59316;52.964;7.102;2023-05-06T10:51:36;9.40;;;7.65;;
70757;SDS011;59316;52.964;7.102;2023-05-06T10:57:07;8.30;;;7.03;;
70757;SDS011;59316;52.964;7.102;2023-05-06T11:02:29;6.78;;;5.47;;
70757;SDS011;59316;52.964;7.102;2023-05-06T11:07:51;8.97;;;5.67;;
70757;SDS011;59316;52.964;7.102;2023-05-06T11:13:28;8.63;;;5.17;;
70757;SDS011;59316;52.964;7.102;2023-05-06T11:18:54;10.73;;;6.78;;
70757;SDS011;59316;52.964;7.102;2023-05-06T11:24:50;7.45;;;5.20;;
70757;SDS011;59316;52.964;7.102;2023-05-06T11:30:03;7.50;;;5.25;;
70757;SDS011;59316;52.964;7.102;2023-05-06T11:35:32;7.30;;;4.95;;
70757;SDS011;59316;52.964;7.102;2023-05-06T11:40:58;8.77;;;6.30;;
70757;SDS011;59316;52.964;7.102;2023-05-06T11:46:21;12.83;;;8.27;;
70757;SDS011;59316;52.964;7.102;2023-05-06T11:51:43;11.15;;;7.25;;
70757;SDS011;59316;52.964;7.102;2023-05-06T11:57:07;8.70;;;6.35;;
70757;SDS011;59316;52.964;7.102;2023-05-06T12:02:29;10.45;;;7.60;;
70757;SDS011;59316;52.964;7.102;2023-05-06T12:07:51;10.13;;;6.50;;
70757;SDS011;59316;52.964;7.102;2023-05-06T12:13:12;10.32;;;6.97;;
70757;SDS011;59316;52.964;7.102;2023-05-06T12:18:34;8.75;;;6.40;;
70757;SDS011;59316;52.964;7.102;2023-05-06T12:23:56;9.52;;;6.70;;
70757;SDS011;59316;52.964;7.102;2023-05-06T12:29:20;12.80;;;7.13;;
70757;SDS011;59316;52.964;7.102;2023-05-06T12:34:41;8.13;;;6.40;;
70757;SDS011;59316;52.964;7.102;2023-05-06T12:40:03;8.18;;;6.00;;
70757;SDS011;59316;52.964;7.102;2023-05-06T12:45:25;5.68;;;4.55;;
70757;SDS011;59316;52.964;7.102;2023-05-06T12:50:46;6.07;;;4.35;;
70757;SDS011;59316;52.964;7.102;2023-05-06T12:56:08;6.30;;;3.75;;
70757;SDS011;59316;52.964;7.102;2023-05-06T13:01:30;5.95;;;3.97;;
70757;SDS011;59316;52.964;7.102;2023-05-06T13:06:51;5.78;;;4.10;;
70757;SDS011;59316;52.964;7.102;2023-05-06T13:12:13;6.82;;;4.07;;
70757;SDS011;59316;52.964;7.102;2023-05-06T13:17:34;5.43;;;4.10;;
70757;SDS011;59316;52.964;7.102;2023-05-06T13:22:56;6.25;;;4.05;;
70757;SDS011;59316;52.964;7.102;2023-05-06T13:28:18;8.27;;;4.10;;
70757;SDS011;59316;52.964;7.102;2023-05-06T13:33:39;6.00;;;4.60;;
70757;SDS011;59316;52.964;7.102;2023-05-06T13:39:01;7.22;;;5.85;;
70757;SDS011;59316;52.964;7.102;2023-05-06T13:44:22;8.63;;;5.93;;
70757;SDS011;59316;52.964;7.102;2023-05-06T13:49:44;9.05;;;6.05;;
70757;SDS011;59316;52.964;7.102;2023-05-06T13:55:06;11.25;;;6.28;;
70757;SDS011;59316;52.964;7.102;2023-05-06T14:00:28;9.48;;;7.10;;
70757;SDS011;59316;52.964;7.102;2023-05-06T14:05:50;9.40;;;7.13;;
70757;SDS011;59316;52.964;7.102;2023-05-06T14:11:11;11.88;;;8.07;;
70757;SDS011;59316;52.964;7.102;2023-05-06T14:16:33;10.40;;;8.20;;
70757;SDS011;59316;52.964;7.102;2023-05-06T14:21:54;13.10;;;8.57;;
70757;SDS011;59316;52.964;7.102;2023-05-06T14:27:16;14.57;;;11.57;;
70757;SDS011;59316;52.964;7.102;2023-05-06T14:32:38;20.58;;;12.82;;
70757;SDS011;59316;52.964;7.102;2023-05-06T14:37:59;14.00;;;10.85;;
70757;SDS011;59316;52.964;7.102;2023-05-06T14:43:21;15.32;;;10.77;;
70757;SDS011;59316;52.964;7.102;2023-05-06T14:48:43;20.55;;;12.02;;
70757;SDS011;59316;52.964;7.102;2023-05-06T14:54:04;18.65;;;11.38;;
70757;SDS011;59316;52.964;7.102;2023-05-06T14:59:26;15.93;;;10.63;;
70757;SDS011;59316;52.964;7.102;2023-05-06T15:04:48;13.85;;;8.45;;
70757;SDS011;59316;52.964;7.102;2023-05-06T15:10:09;10.63;;;7.47;;
70757;SDS011;59316;52.964;7.102;2023-05-06T15:15:31;11.05;;;7.07;;
70757;SDS011;59316;52.964;7.102;2023-05-06T15:20:52;11.45;;;7.35;;
70757;SDS011;59316;52.964;7.102;2023-05-06T15:26:14;9.27;;;6.63;;
70757;SDS011;59316;52.964;7.102;2023-05-06T15:31:35;10.85;;;6.65;;
70757;SDS011;59316;52.964;7.102;2023-05-06T15:36:57;8.48;;;5.30;;
70757;SDS011;59316;52.964;7.102;2023-05-06T15:42:18;9.82;;;5.00;;
70757;SDS011;59316;52.964;7.102;2023-05-06T15:47:40;10.27;;;6.10;;
70757;SDS011;59316;52.964;7.102;2023-05-06T15:53:01;12.18;;;6.68;;
70757;SDS011;59316;52.964;7.102;2023-05-06T15:58:23;12.77;;;8.05;;
70757;SDS011;59316;52.964;7.102;2023-05-06T16:03:45;14.35;;;8.10;;
70757;SDS011;59316;52.964;7.102;2023-05-06T16:09:06;15.40;;;9.45;;
70757;SDS011;59316;52.964;7.102;2023-05-06T16:14:28;15.82;;;9.40;;
70757;SDS011;59316;52.964;7.102;2023-05-06T16:19:49;15.73;;;9.02;;
70757;SDS011;59316;52.964;7.102;2023-05-06T16:25:11;14.55;;;8.65;;
70757;SDS011;59316;52.964;7.102;2023-05-06T16:30:32;14.13;;;6.82;;
70757;SDS011;59316;52.964;7.102;2023-05-06T16:35:54;12.43;;;6.70;;
70757;SDS011;59316;52.964;7.102;2023-05-06T16:41:15;9.40;;;5.88;;
70757;SDS011;59316;52.964;7.102;2023-05-06T16:46:37;9.07;;;6.07;;
70757;SDS011;59316;52.964;7.102;2023-05-06T16:51:59;9.98;;;6.35;;
70757;SDS011;59316;52.964;7.102;2023-05-06T16:57:20;16.80;;;9.07;;
70757;SDS011;59316;52.964;7.102;2023-05-06T17:02:41;17.90;;;10.18;;
70757;SDS011;59316;52.964;7.102;2023-05-06T17:08:03;19.67;;;11.20;;
70757;SDS011;59316;52.964;7.102;2023-05-06T17:13:25;20.65;;;11.40;;
70757;SDS011;59316;52.964;7.102;2023-05-06T17:18:46;20.48;;;12.02;;
70757;SDS011;59316;52.964;7.102;2023-05-06T17:24:08;19.38;;;11.30;;
70757;SDS011;59316;52.964;7.102;2023-05-06T17:29:30;19.27;;;11.30;;
70757;SDS011;59316;52.964;7.102;2023-05-06T17:34:51;17.33;;;11.00;;
70757;SDS011;59316;52.964;7.102;2023-05-06T17:40:13;20.15;;;11.88;;
70757;SDS011;59316;52.964;7.102;2023-05-06T17:45:34;19.17;;;11.52;;
70757;SDS011;59316;52.964;7.102;2023-05-06T17:50:59;22.48;;;12.45;;
70757;SDS011;59316;52.964;7.102;2023-05-06T17:56:21;18.90;;;11.55;;
70757;SDS011;59316;52.964;7.102;2023-05-06T18:01:42;17.70;;;9.95;;
70757;SDS011;59316;52.964;7.102;2023-05-06T18:07:04;14.18;;;9.85;;
70757;SDS011;59316;52.964;7.102;2023-05-06T18:12:26;16.27;;;10.73;;
70757;SDS011;59316;52.964;7.102;2023-05-06T18:17:47;16.23;;;10.07;;
70757;SDS011;59316;52.964;7.102;2023-05-06T18:23:09;15.38;;;10.32;;
70757;SDS011;59316;52.964;7.102;2023-05-06T18:28:34;17.50;;;10.18;;
70757;SDS011;59316;52.964;7.102;2023-05-06T18:33:56;15.73;;;10.48;;
70757;SDS011;59316;52.964;7.102;2023-05-06T18:39:18;20.65;;;11.30;;
70757;SDS011;59316;52.964;7.102;2023-05-06T18:44:42;21.35;;;11.82;;
70757;SDS011;59316;52.964;7.102;2023-05-06T18:50:05;18.35;;;10.23;;
70757;SDS011;59316;52.964;7.102;2023-05-06T18:55:28;20.30;;;11.97;;
70757;SDS011;59316;52.964;7.102;2023-05-06T19:00:49;19.45;;;10.50;;
70757;SDS011;59316;52.964;7.102;2023-05-06T19:06:11;20.20;;;11.25;;
70757;SDS011;59316;52.964;7.102;2023-05-06T19:11:32;20.75;;;11.10;;
70757;SDS011;59316;52.964;7.102;2023-05-06T19:16:55;25.10;;;14.45;;
70757;SDS011;59316;52.964;7.102;2023-05-06T19:22:16;24.38;;;14.55;;
70757;SDS011;59316;52.964;7.102;2023-05-06T19:27:37;24.85;;;14.95;;
70757;SDS011;59316;52.964;7.102;2023-05-06T19:32:59;23.77;;;14.05;;
70757;SDS011;59316;52.964;7.102;2023-05-06T19:38:22;22.60;;;14.27;;
70757;SDS011;59316;52.964;7.102;2023-05-06T19:43:43;22.88;;;13.68;;
70757;SDS011;59316;52.964;7.102;2023-05-06T19:49:05;24.90;;;13.85;;
70757;SDS011;59316;52.964;7.102;2023-05-06T19:54:26;21.92;;;13.73;;
70757;SDS011;59316;52.964;7.102;2023-05-06T19:59:48;20.33;;;13.73;;
70757;SDS011;59316;52.964;7.102;2023-05-06T20:05:09;23.10;;;14.13;;
70757;SDS011;59316;52.964;7.102;2023-05-06T20:10:31;26.65;;;14.10;;
70757;SDS011;59316;52.964;7.102;2023-05-06T20:15:53;23.23;;;14.25;;
70757;SDS011;59316;52.964;7.102;2023-05-06T20:21:15;24.50;;;14.27;;
70757;SDS011;59316;52.964;7.102;2023-05-06T20:26:36;27.73;;;14.63;;
70757;SDS011;59316;52.964;7.102;2023-05-06T20:31:58;28.25;;;14.50;;
70757;SDS011;59316;52.964;7.102;2023-05-06T20:37:20;27.30;;;16.45;;
70757;SDS011;59316;52.964;7.102;2023-05-06T20:42:41;30.77;;;16.33;;
70757;SDS011;59316;52.964;7.102;2023-05-06T20:48:03;31.83;;;17.50;;
70757;SDS011;59316;52.964;7.102;2023-05-06T20:53:25;32.30;;;17.13;;
70757;SDS011;59316;52.964;7.102;2023-05-06T20:58:46;30.80;;;16.30;;
70757;SDS011;59316;52.964;7.102;2023-05-06T21:04:08;33.58;;;18.05;;
70757;SDS011;59316;52.964;7.102;2023-05-06T21:09:30;39.38;;;18.92;;
70757;SDS011;59316;52.964;7.102;2023-05-06T21:14:51;34.42;;;18.00;;
70757;SDS011;59316;52.964;7.102;2023-05-06T21:20:13;35.80;;;17.88;;
70757;SDS011;59316;52.964;7.102;2023-05-06T21:25:34;32.85;;;18.45;;
70757;SDS011;59316;52.964;7.102;2023-05-06T21:30:56;35.42;;;18.40;;
70757;SDS011;59316;52.964;7.102;2023-05-06T21:36:17;33.60;;;17.38;;
70757;SDS011;59316;52.964;7.102;2023-05-06T21:41:39;38.05;;;18.73;;
70757;SDS011;59316;52.964;7.102;2023-05-06T21:47:00;33.08;;;17.92;;
70757;SDS011;59316;52.964;7.102;2023-05-06T21:52:22;31.33;;;18.33;;
70757;SDS011;59316;52.964;7.102;2023-05-06T21:57:44;32.65;;;16.88;;
70757;SDS011;59316;52.964;7.102;2023-05-06T22:03:05;29.55;;;17.20;;
70757;SDS011;59316;52.964;7.102;2023-05-06T22:08:27;31.25;;;16.77;;
70757;SDS011;59316;52.964;7.102;2023-05-06T22:13:48;27.25;;;16.42;;
70757;SDS011;59316;52.964;7.102;2023-05-06T22:19:10;35.00;;;16.77;;
70757;SDS011;59316;52.964;7.102;2023-05-06T22:24:32;30.75;;;16.98;;
70757;SDS011;59316;52.964;7.102;2023-05-06T22:29:53;29.20;;;16.70;;
70757;SDS011;59316;52.964;7.102;2023-05-06T22:35:15;28.13;;;16.13;;
70757;SDS011;59316;52.964;7.102;2023-05-06T22:40:36;28.58;;;15.15;;
70757;SDS011;59316;52.964;7.102;2023-05-06T22:45:58;23.92;;;14.00;;
70757;SDS011;59316;52.964;7.102;2023-05-06T22:51:19;28.00;;;16.65;;
70757;SDS011;59316;52.964;7.102;2023-05-06T22:56:41;27.65;;;15.38;;
70757;SDS011;59316;52.964;7.102;2023-05-06T23:02:03;25.17;;;15.23;;
70757;SDS011;59316;52.964;7.102;2023-05-06T23:07:24;28.35;;;16.08;;
70757;SDS011;59316;52.964;7.102;2023-05-06T23:12:46;30.65;;;16.77;;
70757;SDS011;59316;52.964;7.102;2023-05-06T23:18:08;32.97;;;17.40;;
70757;SDS011;59316;52.964;7.102;2023-05-06T23:23:30;33.22;;;17.58;;
70757;SDS011;59316;52.964;7.102;2023-05-06T23:28:52;28.38;;;16.48;;
70757;SDS011;59316;52.964;7.102;2023-05-06T23:34:14;28.30;;;16.27;;
70757;SDS011;59316;52.964;7.102;2023-05-06T23:39:35;32.72;;;17.38;;
70757;SDS011;59316;52.964;7.102;2023-05-06T23:44:57;31.10;;;17.73;;
70757;SDS011;59316;52.964;7.102;2023-05-06T23:50:18;33.90;;;19.20;;
70757;SDS011;59316;52.964;7.102;2023-05-06T23:55:40;27.88;;;17.25;;
